Time;durP1;ratioP1;P1;durP2;ratioP2;P2;SDS_P1;SDS_P2;PMS_P1;PMS_P2;Temp;Humidity;BMP_temperature;BMP_pressure;BME280_temperature;BME280_humidity;BME280_pressure;Samples;Min_cycle;Max_cycle;Signal;HPM_P1;HPM_P2
2022/05/29 00:01:52;;;;;;;9.75;2.38;;;;;;;;;;5112643;27;20216;-74
2022/05/29 00:04:19;;;;;;;11.88;2.65;;;;;;;;;;5113611;27;20181;-75
2022/05/29 00:06:46;;;;;;;15.73;2.33;;;;;;;;;;5113772;27;20182;-75
2022/05/29 00:09:15;;;;;;;12.65;2.60;;;;;;;;;;5111194;27;20243;-74
2022/05/29 00:11:41;;;;;;;8.40;1.83;;;;;;;;;;5120133;27;20978;-75
2022/05/29 00:14:07;;;;;;;21.15;2.42;;;;;;;;;;5119185;27;20634;-75
2022/05/29 00:16:33;;;;;;;17.45;2.40;;;;;;;;;;5114408;27;20271;-74
2022/05/29 00:19:00;;;;;;;10.40;2.10;;;;;;;;;;5112159;27;20672;-75
2022/05/29 00:21:27;;;;;;;21.17;2.60;;;;;;;;;;5116985;27;20184;-74
2022/05/29 00:23:53;;;;;;;11.25;2.47;;;;;;;;;;5119798;27;20985;-75
2022/05/29 00:26:20;;;;;;;16.80;3.13;;;;;;;;;;5121460;27;20196;-76
2022/05/29 00:28:46;;;;;;;12.43;2.22;;;;;;;;;;5110994;27;20240;-74
2022/05/29 00:31:13;;;;;;;10.88;2.17;;;;;;;;;;5116567;27;20245;-75
2022/05/29 00:33:41;;;;;;;8.77;1.90;;;;;;;;;;5092402;28;20303;-76
2022/05/29 00:36:09;;;;;;;8.75;1.90;;;;;;;;;;5119885;27;20196;-75
2022/05/29 00:38:42;;;;;;;5.63;1.80;;;;;;;;;;5107180;27;20530;-74
2022/05/29 00:41:17;;;;;;;10.82;2.08;;;;;;;;;;5132254;27;20692;-75
2022/05/29 00:43:43;;;;;;;9.50;2.13;;;;;;;;;;5109780;27;20257;-76
2022/05/29 00:46:12;;;;;;;9.35;2.15;;;;;;;;;;5112326;27;20212;-74
2022/05/29 00:48:38;;;;;;;6.90;1.58;;;;;;;;;;5115998;27;20200;-74
2022/05/29 00:51:07;;;;;;;7.10;1.90;;;;;;;;;;5116913;27;20645;-74
2022/05/29 00:53:34;;;;;;;13.68;2.35;;;;;;;;;;5137254;27;20659;-76
2022/05/29 00:56:02;;;;;;;14.07;2.03;;;;;;;;;;5116488;27;20185;-75
2022/05/29 00:58:28;;;;;;;15.15;2.03;;;;;;;;;;5115711;27;20192;-76
2022/05/29 01:00:55;;;;;;;14.32;2.17;;;;;;;;;;5112952;27;20189;-74
2022/05/29 01:03:22;;;;;;;11.98;2.45;;;;;;;;;;5112045;27;20193;-74
2022/05/29 01:05:49;;;;;;;17.77;2.42;;;;;;;;;;5115707;27;20189;-75
2022/05/29 01:08:19;;;;;;;8.73;2.28;;;;;;;;;;5116295;27;20293;-75
2022/05/29 01:10:54;;;;;;;11.10;2.50;;;;;;;;;;5117900;27;20184;-76
2022/05/29 01:13:23;;;;;;;8.20;2.20;;;;;;;;;;5113942;27;20191;-74
2022/05/29 01:16:05;;;;;;;11.05;2.40;;;;;;;;;;5117444;27;20183;-76
2022/05/29 01:18:34;;;;;;;11.15;1.92;;;;;;;;;;5122034;27;20188;-75
2022/05/29 01:21:19;;;;;;;10.70;2.78;;;;;;;;;;5107080;27;20212;-74
2022/05/29 01:23:45;;;;;;;15.35;2.63;;;;;;;;;;5122723;27;20236;-75
2022/05/29 01:26:15;;;;;;;17.33;2.88;;;;;;;;;;5118458;27;20648;-75
2022/05/29 01:28:50;;;;;;;11.80;2.80;;;;;;;;;;5121689;27;20220;-75
2022/05/29 01:31:37;;;;;;;11.07;2.33;;;;;;;;;;5118811;27;20180;-75
2022/05/29 01:34:03;;;;;;;8.65;2.25;;;;;;;;;;5111944;27;20186;-76
2022/05/29 01:36:43;;;;;;;10.32;2.60;;;;;;;;;;5108581;28;20549;-76
2022/05/29 01:39:18;;;;;;;16.05;2.72;;;;;;;;;;5110151;27;20193;-76
2022/05/29 01:41:50;;;;;;;13.10;2.40;;;;;;;;;;5117818;27;20228;-76
2022/05/29 01:44:24;;;;;;;12.32;2.45;;;;;;;;;;5109341;27;20189;-76
2022/05/29 01:46:54;;;;;;;10.55;2.22;;;;;;;;;;5130368;27;20203;-76
2022/05/29 01:49:29;;;;;;;14.20;2.10;;;;;;;;;;5115219;27;20196;-76
2022/05/29 01:52:01;;;;;;;11.27;2.05;;;;;;;;;;5109764;28;20196;-75
2022/05/29 01:54:30;;;;;;;20.95;2.80;;;;;;;;;;5115192;27;20204;-76
2022/05/29 01:56:59;;;;;;;12.68;2.53;;;;;;;;;;5119951;27;20196;-78
2022/05/29 01:59:29;;;;;;;11.40;2.42;;;;;;;;;;5108852;27;20284;-76
2022/05/29 02:01:58;;;;;;;9.68;2.30;;;;;;;;;;5113819;27;20197;-76
2022/05/29 02:04:26;;;;;;;8.30;2.00;;;;;;;;;;5113851;27;20193;-76
2022/05/29 02:09:44;;;;;;;7.43;1.77;;;;;;;;;;5111235;27;20181;-76
2022/05/29 02:12:11;;;;;;;5.30;1.77;;;;;;;;;;5109408;28;20192;-76
2022/05/29 02:14:40;;;;;;;6.45;2.05;;;;;;;;;;5113763;27;20189;-77
2022/05/29 02:17:26;;;;;;;11.10;2.33;;;;;;;;;;5116528;27;20657;-76
2022/05/29 02:19:56;;;;;;;10.00;2.65;;;;;;;;;;5105904;28;20257;-77
2022/05/29 02:22:27;;;;;;;13.75;3.10;;;;;;;;;;5106265;28;20296;-76
2022/05/29 02:24:56;;;;;;;16.88;2.92;;;;;;;;;;5113784;27;20276;-76
2022/05/29 02:27:27;;;;;;;15.95;3.45;;;;;;;;;;5108222;27;20652;-77
2022/05/29 02:29:57;;;;;;;12.10;3.05;;;;;;;;;;5098091;27;20272;-77
2022/05/29 02:32:31;;;;;;;8.88;2.90;;;;;;;;;;5110660;27;20260;-76
2022/05/29 02:35:04;;;;;;;8.57;3.10;;;;;;;;;;5109829;27;20192;-76
2022/05/29 02:37:43;;;;;;;11.50;2.78;;;;;;;;;;5110263;27;20197;-75
2022/05/29 02:40:29;;;;;;;8.40;2.80;;;;;;;;;;5104637;28;20192;-75
2022/05/29 02:43:16;;;;;;;11.20;2.47;;;;;;;;;;5110984;27;20290;-76
2022/05/29 02:45:46;;;;;;;10.98;3.05;;;;;;;;;;5112334;28;20836;-75
2022/05/29 02:48:16;;;;;;;7.88;2.60;;;;;;;;;;5115555;27;20215;-75
2022/05/29 02:50:58;;;;;;;8.73;2.55;;;;;;;;;;5110753;28;20190;-76
2022/05/29 02:53:24;;;;;;;12.25;2.65;;;;;;;;;;5116698;28;20181;-75
2022/05/29 02:55:51;;;;;;;10.15;2.42;;;;;;;;;;5111205;28;20233;-76
2022/05/29 02:58:19;;;;;;;7.45;2.58;;;;;;;;;;5109598;28;20202;-75
2022/05/29 03:00:54;;;;;;;8.55;2.60;;;;;;;;;;5097629;28;20598;-75
2022/05/29 03:03:33;;;;;;;11.20;2.63;;;;;;;;;;5114191;28;20590;-75
2022/05/29 03:06:18;;;;;;;12.35;3.08;;;;;;;;;;5109630;28;20649;-75
2022/05/29 03:08:50;;;;;;;13.43;3.20;;;;;;;;;;5109851;27;20216;-76
2022/05/29 03:11:24;;;;;;;11.15;3.25;;;;;;;;;;5113532;28;20185;-76
2022/05/29 03:13:54;;;;;;;12.85;2.72;;;;;;;;;;5117624;27;20175;-76
2022/05/29 03:16:26;;;;;;;13.43;3.25;;;;;;;;;;5120425;27;20708;-76
2022/05/29 03:19:01;;;;;;;15.75;3.22;;;;;;;;;;5135912;27;20193;-76
2022/05/29 03:21:35;;;;;;;13.00;3.13;;;;;;;;;;5115593;27;20183;-76
2022/05/29 03:24:03;;;;;;;9.82;2.53;;;;;;;;;;5124817;27;20177;-77
2022/05/29 03:26:39;;;;;;;9.48;2.50;;;;;;;;;;5115863;27;20241;-75
2022/05/29 03:29:14;;;;;;;11.35;2.90;;;;;;;;;;5124599;27;20698;-77
2022/05/29 03:31:41;;;;;;;10.65;3.15;;;;;;;;;;5115049;27;20178;-76
2022/05/29 03:34:08;;;;;;;6.53;2.60;;;;;;;;;;5116934;27;20223;-76
2022/05/29 03:36:34;;;;;;;10.82;3.20;;;;;;;;;;5118850;27;20191;-76
2022/05/29 03:39:00;;;;;;;16.67;3.05;;;;;;;;;;5113051;27;20192;-75
2022/05/29 03:41:35;;;;;;;13.20;2.75;;;;;;;;;;5114436;27;20225;-78
2022/05/29 03:44:01;;;;;;;11.18;3.25;;;;;;;;;;5111701;28;20220;-75
2022/05/29 03:46:27;;;;;;;10.23;3.08;;;;;;;;;;5115859;27;20189;-76
2022/05/29 03:48:53;;;;;;;11.07;2.95;;;;;;;;;;5122605;27;20624;-74
2022/05/29 03:51:19;;;;;;;12.13;3.15;;;;;;;;;;5111709;27;20185;-76
2022/05/29 03:53:45;;;;;;;10.45;2.83;;;;;;;;;;5112749;28;20186;-76
2022/05/29 03:56:12;;;;;;;8.38;2.28;;;;;;;;;;5105710;27;20192;-76
2022/05/29 03:58:38;;;;;;;9.90;2.35;;;;;;;;;;5112949;27;20184;-77
2022/05/29 04:01:06;;;;;;;7.78;2.10;;;;;;;;;;5117896;27;20238;-75
2022/05/29 04:03:34;;;;;;;11.07;2.30;;;;;;;;;;5109316;27;20259;-75
2022/05/29 04:06:00;;;;;;;10.23;2.15;;;;;;;;;;5119201;27;20185;-76
2022/05/29 04:13:57;;;;;;;10.25;2.47;;;;;;;;;;5118047;27;20283;-75
2022/05/29 04:16:23;;;;;;;10.15;2.33;;;;;;;;;;5115285;27;20208;-75
2022/05/29 04:18:49;;;;;;;7.45;2.10;;;;;;;;;;5112349;27;20233;-75
2022/05/29 04:21:15;;;;;;;17.25;2.78;;;;;;;;;;5122413;27;20552;-75
2022/05/29 04:23:41;;;;;;;9.70;2.35;;;;;;;;;;5104674;27;20280;-75
2022/05/29 04:26:08;;;;;;;11.75;2.65;;;;;;;;;;5112953;27;20185;-76
2022/05/29 04:28:34;;;;;;;13.27;2.70;;;;;;;;;;5111604;27;20216;-77
2022/05/29 04:31:00;;;;;;;10.02;2.30;;;;;;;;;;5107223;27;20185;-75
2022/05/29 04:33:26;;;;;;;8.90;2.42;;;;;;;;;;5105736;28;20212;-76
2022/05/29 04:35:54;;;;;;;13.90;2.25;;;;;;;;;;5120587;27;20184;-75
2022/05/29 04:38:20;;;;;;;9.32;2.80;;;;;;;;;;5117387;27;20188;-76
2022/05/29 04:40:47;;;;;;;15.13;3.08;;;;;;;;;;5122378;27;20272;-75
2022/05/29 04:43:15;;;;;;;12.38;2.88;;;;;;;;;;5109086;28;20292;-77
2022/05/29 04:45:43;;;;;;;10.23;3.30;;;;;;;;;;5121845;27;20209;-76
2022/05/29 04:48:09;;;;;;;12.10;2.92;;;;;;;;;;5109150;27;20205;-77
2022/05/29 04:50:36;;;;;;;14.88;3.50;;;;;;;;;;5110123;28;20233;-76
2022/05/29 04:53:02;;;;;;;14.65;3.42;;;;;;;;;;5107198;27;20201;-75
2022/05/29 04:55:28;;;;;;;14.80;3.45;;;;;;;;;;5111153;28;20518;-74
2022/05/29 04:57:55;;;;;;;10.35;3.03;;;;;;;;;;5114583;27;20186;-74
2022/05/29 05:00:21;;;;;;;11.88;3.60;;;;;;;;;;5117795;27;20213;-74
2022/05/29 05:02:47;;;;;;;17.23;3.80;;;;;;;;;;5113554;27;20172;-76
2022/05/29 05:05:13;;;;;;;19.73;3.63;;;;;;;;;;5109773;27;20201;-74
2022/05/29 05:07:39;;;;;;;19.70;3.65;;;;;;;;;;5111214;27;20220;-75
2022/05/29 05:10:10;;;;;;;16.20;3.30;;;;;;;;;;5115158;27;20277;-76
2022/05/29 05:12:36;;;;;;;16.13;3.35;;;;;;;;;;5109151;27;20679;-74
2022/05/29 05:15:02;;;;;;;9.88;2.88;;;;;;;;;;5113175;27;20203;-75
2022/05/29 05:17:28;;;;;;;11.48;2.97;;;;;;;;;;5117986;27;20177;-72
2022/05/29 05:19:54;;;;;;;13.32;2.90;;;;;;;;;;5105303;28;20189;-71
2022/05/29 05:22:20;;;;;;;14.65;2.90;;;;;;;;;;5118485;27;20182;-74
2022/05/29 05:24:46;;;;;;;16.63;3.45;;;;;;;;;;5103607;28;20182;-72
2022/05/29 05:27:12;;;;;;;26.42;3.50;;;;;;;;;;5109882;28;20176;-71
2022/05/29 05:29:38;;;;;;;13.77;3.15;;;;;;;;;;5115855;27;20705;-73
2022/05/29 05:32:05;;;;;;;14.75;2.92;;;;;;;;;;5109119;28;20210;-72
2022/05/29 05:34:31;;;;;;;11.70;2.83;;;;;;;;;;5108410;28;20190;-72
2022/05/29 05:36:57;;;;;;;15.43;3.38;;;;;;;;;;5118581;27;20235;-73
2022/05/29 05:39:23;;;;;;;12.43;2.63;;;;;;;;;;5112681;27;20192;-71
2022/05/29 05:41:49;;;;;;;10.50;2.65;;;;;;;;;;5112103;27;20225;-72
2022/05/29 05:44:15;;;;;;;9.90;2.28;;;;;;;;;;5108031;28;20659;-71
2022/05/29 05:46:47;;;;;;;14.00;2.92;;;;;;;;;;5106128;27;20196;-72
2022/05/29 05:49:15;;;;;;;8.00;2.25;;;;;;;;;;5106781;28;20560;-72
2022/05/29 05:51:42;;;;;;;9.13;2.05;;;;;;;;;;5110381;28;20680;-73
2022/05/29 05:54:08;;;;;;;11.02;2.33;;;;;;;;;;5112921;27;20629;-72
2022/05/29 05:56:34;;;;;;;10.73;2.47;;;;;;;;;;5107327;27;20193;-72
2022/05/29 05:59:00;;;;;;;14.07;2.30;;;;;;;;;;5107941;28;20185;-73
2022/05/29 06:01:26;;;;;;;7.53;2.17;;;;;;;;;;5108676;28;20196;-74
2022/05/29 06:03:52;;;;;;;11.02;2.00;;;;;;;;;;5106238;28;20224;-73
2022/05/29 06:06:18;;;;;;;7.40;2.15;;;;;;;;;;5107992;28;20221;-72
2022/05/29 06:08:44;;;;;;;7.47;2.05;;;;;;;;;;5107532;27;20564;-73
2022/05/29 06:11:10;;;;;;;6.63;1.98;;;;;;;;;;5109725;27;20263;-74
2022/05/29 06:13:36;;;;;;;10.13;1.67;;;;;;;;;;5105335;28;20185;-73
2022/05/29 06:16:03;;;;;;;7.30;1.90;;;;;;;;;;5091964;28;20230;-72
2022/05/29 06:18:29;;;;;;;6.70;1.85;;;;;;;;;;5107441;28;20188;-72
2022/05/29 06:21:00;;;;;;;8.30;1.80;;;;;;;;;;5108970;28;20663;-71
2022/05/29 06:23:27;;;;;;;7.55;2.00;;;;;;;;;;5100808;27;20195;-72
2022/05/29 06:25:53;;;;;;;8.07;1.65;;;;;;;;;;5105206;28;20193;-71
2022/05/29 06:28:20;;;;;;;8.43;1.58;;;;;;;;;;5105305;28;20205;-72
2022/05/29 06:30:46;;;;;;;5.25;1.50;;;;;;;;;;5109571;28;20231;-73
2022/05/29 06:33:12;;;;;;;6.15;1.90;;;;;;;;;;5105896;28;20202;-72
2022/05/29 06:35:38;;;;;;;8.35;1.77;;;;;;;;;;5114809;27;20213;-71
2022/05/29 06:38:05;;;;;;;7.72;1.92;;;;;;;;;;5107106;27;20216;-72
2022/05/29 06:40:31;;;;;;;4.57;1.63;;;;;;;;;;5105382;28;20189;-72
2022/05/29 06:42:57;;;;;;;11.60;1.90;;;;;;;;;;5104564;27;20277;-73
2022/05/29 06:45:23;;;;;;;12.15;1.70;;;;;;;;;;5105591;28;20747;-73
2022/05/29 06:47:49;;;;;;;3.42;1.55;;;;;;;;;;5105161;28;20202;-73
2022/05/29 06:50:15;;;;;;;8.65;2.03;;;;;;;;;;5108675;28;20226;-71
2022/05/29 06:52:41;;;;;;;10.20;1.85;;;;;;;;;;5106462;28;20177;-73
2022/05/29 06:55:08;;;;;;;6.40;1.70;;;;;;;;;;5108029;28;20182;-71
2022/05/29 06:57:37;;;;;;;9.88;1.92;;;;;;;;;;5104224;28;20226;-74
2022/05/29 07:08:30;;;;;;;13.20;2.30;;;;;;;;;;5106981;28;20215;-73
2022/05/29 07:10:57;;;;;;;12.82;2.63;;;;;;;;;;5103627;28;20266;-74
2022/05/29 07:13:23;;;;;;;10.00;2.55;;;;;;;;;;5116731;28;20185;-73
2022/05/29 07:15:49;;;;;;;10.95;2.67;;;;;;;;;;5117890;28;20187;-73
2022/05/29 07:18:15;;;;;;;14.90;2.20;;;;;;;;;;5104616;28;20211;-74
2022/05/29 07:20:41;;;;;;;10.82;1.80;;;;;;;;;;5117766;28;20181;-75
2022/05/29 07:23:07;;;;;;;9.98;2.10;;;;;;;;;;5115546;28;20695;-74
2022/05/29 07:25:33;;;;;;;6.50;1.75;;;;;;;;;;5115032;28;20197;-73
2022/05/29 07:27:59;;;;;;;8.82;1.95;;;;;;;;;;5109896;28;20397;-74
2022/05/29 07:30:25;;;;;;;6.90;2.13;;;;;;;;;;5116280;28;20187;-73
2022/05/29 07:32:52;;;;;;;8.40;1.98;;;;;;;;;;5120918;28;20172;-73
2022/05/29 07:35:18;;;;;;;16.33;2.45;;;;;;;;;;5119442;28;20181;-73
2022/05/29 07:37:44;;;;;;;8.10;1.98;;;;;;;;;;5106189;28;20193;-73
2022/05/29 07:40:10;;;;;;;12.07;2.40;;;;;;;;;;5116730;28;20292;-73
2022/05/29 07:45:21;;;;;;;11.80;2.83;;;;;;;;;;5121112;28;20536;-73
2022/05/29 07:47:47;;;;;;;12.60;3.00;;;;;;;;;;5116365;28;20218;-73
2022/05/29 07:50:15;;;;;;;11.68;2.78;;;;;;;;;;5113862;28;20192;-75
2022/05/29 07:52:41;;;;;;;8.50;3.05;;;;;;;;;;5095552;28;20181;-75
2022/05/29 07:55:07;;;;;;;9.82;3.00;;;;;;;;;;5116245;27;20624;-74
2022/05/29 07:57:40;;;;;;;12.02;3.15;;;;;;;;;;5115666;27;20196;-75
2022/05/29 08:00:07;;;;;;;10.43;2.63;;;;;;;;;;5132101;27;20196;-72
2022/05/29 08:02:37;;;;;;;9.18;1.80;;;;;;;;;;5111983;27;20185;-73
2022/05/29 08:05:04;;;;;;;14.75;2.08;;;;;;;;;;5119642;27;20289;-73
2022/05/29 08:07:30;;;;;;;11.52;2.30;;;;;;;;;;5115909;27;20653;-73
2022/05/29 08:09:57;;;;;;;11.90;2.25;;;;;;;;;;5111776;27;20272;-73
2022/05/29 08:12:23;;;;;;;7.82;2.33;;;;;;;;;;5111958;27;20185;-74
2022/05/29 08:14:49;;;;;;;9.85;2.00;;;;;;;;;;5135291;27;20234;-73
2022/05/29 08:17:15;;;;;;;9.68;2.25;;;;;;;;;;5108225;27;20245;-73
2022/05/29 08:19:41;;;;;;;9.27;1.50;;;;;;;;;;5108973;27;20215;-75
2022/05/29 08:22:07;;;;;;;14.32;1.55;;;;;;;;;;5109403;27;20270;-74
2022/05/29 08:32:59;;;;;;;6.75;1.40;;;;;;;;;;5116839;27;20597;-73
2022/05/29 08:35:25;;;;;;;11.02;1.35;;;;;;;;;;5112337;27;20254;-73
2022/05/29 08:37:51;;;;;;;7.10;1.42;;;;;;;;;;5112872;27;20196;-73
2022/05/29 08:40:17;;;;;;;7.85;1.50;;;;;;;;;;5106498;27;20192;-74
2022/05/29 08:42:43;;;;;;;13.95;1.70;;;;;;;;;;5108896;27;20233;-73
2022/05/29 08:45:12;;;;;;;7.30;2.10;;;;;;;;;;5111469;27;20896;-73
2022/05/29 08:47:39;;;;;;;6.75;1.90;;;;;;;;;;5106050;27;20805;-73
2022/05/29 08:50:06;;;;;;;9.82;2.20;;;;;;;;;;5111761;27;20599;-74
2022/05/29 08:52:32;;;;;;;6.90;1.65;;;;;;;;;;5115593;27;20312;-74
2022/05/29 08:54:58;;;;;;;11.73;2.00;;;;;;;;;;5115537;27;20173;-73
2022/05/29 08:57:43;;;;;;;11.07;1.65;;;;;;;;;;5119360;27;20177;-74
2022/05/29 09:00:21;;;;;;;8.20;1.40;;;;;;;;;;5133666;27;20189;-73
2022/05/29 09:02:48;;;;;;;6.65;1.65;;;;;;;;;;5111575;27;20182;-74
2022/05/29 09:05:18;;;;;;;8.02;1.80;;;;;;;;;;5123110;27;20197;-73
2022/05/29 09:07:45;;;;;;;9.25;1.77;;;;;;;;;;5112218;27;20209;-75
2022/05/29 09:10:20;;;;;;;6.22;1.40;;;;;;;;;;5118691;27;22142;-74
2022/05/29 09:12:53;;;;;;;8.65;1.75;;;;;;;;;;5114928;27;20267;-74
2022/05/29 09:15:32;;;;;;;9.50;2.00;;;;;;;;;;5117137;27;20181;-73
2022/05/29 09:18:01;;;;;;;12.35;2.25;;;;;;;;;;5130606;27;20185;-74
2022/05/29 09:20:30;;;;;;;9.20;1.70;;;;;;;;;;5116368;27;20177;-74
2022/05/29 09:23:00;;;;;;;13.90;2.25;;;;;;;;;;5112160;27;20672;-74
2022/05/29 09:25:39;;;;;;;11.52;1.98;;;;;;;;;;5113886;27;20182;-73
2022/05/29 09:28:12;;;;;;;7.72;1.80;;;;;;;;;;5125279;27;20292;-73
2022/05/29 09:30:38;;;;;;;11.70;2.38;;;;;;;;;;5110101;27;20181;-73
2022/05/29 09:33:20;;;;;;;11.25;2.20;;;;;;;;;;5113071;27;20177;-74
2022/05/29 09:36:05;;;;;;;15.00;3.70;;;;;;;;;;5134805;27;20177;-73
2022/05/29 09:38:35;;;;;;;11.23;1.90;;;;;;;;;;5098271;28;20550;-74
2022/05/29 09:41:10;;;;;;;10.98;2.15;;;;;;;;;;5118100;27;20279;-74
2022/05/29 09:43:36;;;;;;;9.23;1.67;;;;;;;;;;5109372;27;20192;-72
2022/05/29 09:46:17;;;;;;;13.00;1.88;;;;;;;;;;5123130;27;20176;-73
2022/05/29 09:51:38;;;;;;;12.05;1.98;;;;;;;;;;5116178;27;20625;-72
2022/05/29 09:54:06;;;;;;;13.38;1.70;;;;;;;;;;5123355;27;20633;-72
2022/05/29 09:56:33;;;;;;;8.90;1.75;;;;;;;;;;5106523;27;20184;-73
2022/05/29 09:59:02;;;;;;;9.40;1.70;;;;;;;;;;5101982;27;20178;-72
2022/05/29 10:01:38;;;;;;;7.18;1.55;;;;;;;;;;5114340;27;20176;-73
2022/05/29 10:04:12;;;;;;;8.63;1.48;;;;;;;;;;5113229;27;20190;-74
2022/05/29 10:06:43;;;;;;;8.70;1.50;;;;;;;;;;5119649;27;20195;-75
2022/05/29 10:09:09;;;;;;;12.35;1.52;;;;;;;;;;5116404;27;20213;-72
2022/05/29 10:11:35;;;;;;;8.40;1.40;;;;;;;;;;5114217;27;20193;-74
2022/05/29 10:14:17;;;;;;;11.98;1.27;;;;;;;;;;5112643;27;20181;-73
2022/05/29 10:16:43;;;;;;;15.88;2.00;;;;;;;;;;5108616;27;20188;-74
2022/05/29 10:19:11;;;;;;;7.82;1.65;;;;;;;;;;5111488;27;20278;-73
2022/05/29 10:21:42;;;;;;;7.53;1.40;;;;;;;;;;5118244;27;20263;-72
2022/05/29 10:24:22;;;;;;;5.78;1.55;;;;;;;;;;5115848;27;20204;-75
2022/05/29 10:26:50;;;;;;;6.82;1.35;;;;;;;;;;5118230;27;20712;-74
2022/05/29 10:29:19;;;;;;;11.10;1.85;;;;;;;;;;5125086;27;20209;-74
2022/05/29 10:31:47;;;;;;;8.90;1.63;;;;;;;;;;5114889;27;20533;-75
2022/05/29 10:34:16;;;;;;;12.43;1.60;;;;;;;;;;5109412;27;20181;-73
2022/05/29 10:36:42;;;;;;;6.68;1.40;;;;;;;;;;5113021;27;20528;-73
2022/05/29 10:39:09;;;;;;;8.52;1.65;;;;;;;;;;5107988;27;20189;-73
2022/05/29 10:41:37;;;;;;;9.90;1.55;;;;;;;;;;5112275;27;20297;-74
2022/05/29 10:44:03;;;;;;;6.30;1.40;;;;;;;;;;5110324;27;20181;-72
2022/05/29 10:46:49;;;;;;;10.20;1.40;;;;;;;;;;5112092;27;20197;-74
2022/05/29 10:49:38;;;;;;;8.13;1.60;;;;;;;;;;5107369;28;20344;-73
2022/05/29 10:52:22;;;;;;;4.50;1.15;;;;;;;;;;5109842;28;20232;-75
2022/05/29 10:55:03;;;;;;;7.00;1.20;;;;;;;;;;5111784;27;20675;-73
2022/05/29 10:57:35;;;;;;;6.07;1.23;;;;;;;;;;5114336;28;20177;-74
2022/05/29 11:00:20;;;;;;;7.70;1.70;;;;;;;;;;5124219;27;20263;-73
2022/05/29 11:03:21;;;;;;;6.25;2.08;;;;;;;;;;5117859;28;20187;-75
2022/05/29 11:05:50;;;;;;;2.53;0.85;;;;;;;;;;5113690;28;20178;-74
2022/05/29 11:08:21;;;;;;;3.08;1.00;;;;;;;;;;5111162;28;20680;-73
2022/05/29 11:11:06;;;;;;;6.03;1.20;;;;;;;;;;5089614;28;20581;-74
2022/05/29 11:13:51;;;;;;;5.13;1.40;;;;;;;;;;5106784;28;20183;-73
2022/05/29 11:16:17;;;;;;;6.93;1.60;;;;;;;;;;5114532;28;20176;-74
2022/05/29 11:18:53;;;;;;;9.48;1.52;;;;;;;;;;5107858;28;20196;-74
2022/05/29 11:21:22;;;;;;;7.78;1.40;;;;;;;;;;5114956;28;20188;-74
2022/05/29 11:23:48;;;;;;;5.97;1.40;;;;;;;;;;5113040;28;20648;-74
2022/05/29 11:26:22;;;;;;;6.85;1.30;;;;;;;;;;5121506;27;20192;-74
2022/05/29 11:29:06;;;;;;;4.25;1.20;;;;;;;;;;5117543;27;20218;-74
2022/05/29 11:31:32;;;;;;;8.65;1.42;;;;;;;;;;5123841;27;20636;-74
2022/05/29 11:33:58;;;;;;;3.47;0.93;;;;;;;;;;5116190;27;20246;-74
2022/05/29 11:36:50;;;;;;;4.85;1.10;;;;;;;;;;5118942;27;20181;-74
2022/05/29 11:39:21;;;;;;;8.13;1.60;;;;;;;;;;5118529;27;20322;-74
2022/05/29 11:41:51;;;;;;;6.97;1.20;;;;;;;;;;5129450;27;20626;-74
2022/05/29 11:44:25;;;;;;;7.78;1.45;;;;;;;;;;5135464;27;20237;-74
2022/05/29 11:52:29;;;;;;;4.55;1.13;;;;;;;;;;5118339;27;20282;-74
2022/05/29 11:54:58;;;;;;;6.20;1.20;;;;;;;;;;5117270;27;20177;-71
2022/05/29 11:57:33;;;;;;;5.65;1.30;;;;;;;;;;5110729;28;20189;-70
2022/05/29 12:00:03;;;;;;;4.63;1.05;;;;;;;;;;5116178;27;20236;-72
2022/05/29 12:02:50;;;;;;;3.55;1.10;;;;;;;;;;5112497;27;20621;-70
2022/05/29 12:05:16;;;;;;;5.60;1.23;;;;;;;;;;5114715;27;21020;-71
2022/05/29 12:07:44;;;;;;;8.77;1.60;;;;;;;;;;5114173;27;20613;-70
2022/05/29 12:10:15;;;;;;;6.35;1.20;;;;;;;;;;5122175;27;20188;-70
2022/05/29 12:12:44;;;;;;;6.15;1.40;;;;;;;;;;5123266;27;20182;-71
2022/05/29 12:15:13;;;;;;;4.53;0.90;;;;;;;;;;5117297;27;20190;-73
2022/05/29 12:17:51;;;;;;;5.72;1.17;;;;;;;;;;5110253;28;20480;-72
2022/05/29 12:20:21;;;;;;;5.43;1.00;;;;;;;;;;5115470;27;20295;-73
2022/05/29 12:23:08;;;;;;;6.38;1.23;;;;;;;;;;5117819;27;20181;-72
2022/05/29 12:25:41;;;;;;;4.25;1.10;;;;;;;;;;5126333;27;20608;-71
2022/05/29 12:28:16;;;;;;;2.58;0.98;;;;;;;;;;5124092;27;20219;-71
2022/05/29 12:30:44;;;;;;;2.97;0.88;;;;;;;;;;5109114;28;20202;-72
2022/05/29 12:33:14;;;;;;;6.10;1.20;;;;;;;;;;5112642;27;20195;-72
2022/05/29 12:35:46;;;;;;;5.53;1.00;;;;;;;;;;5112009;28;20197;-72
2022/05/29 12:38:24;;;;;;;3.95;1.10;;;;;;;;;;5115197;27;20617;-70
2022/05/29 12:40:59;;;;;;;5.57;1.10;;;;;;;;;;5112554;27;20231;-71
2022/05/29 12:43:33;;;;;;;5.22;1.00;;;;;;;;;;5110902;28;20616;-70
2022/05/29 12:46:16;;;;;;;3.10;0.80;;;;;;;;;;5108249;28;20200;-70
2022/05/29 12:48:54;;;;;;;3.45;1.10;;;;;;;;;;5110388;28;20220;-70
2022/05/29 12:51:32;;;;;;;2.15;0.80;;;;;;;;;;5109869;28;20206;-72
2022/05/29 12:54:13;;;;;;;5.65;0.90;;;;;;;;;;5119695;27;20664;-71
2022/05/29 12:56:42;;;;;;;3.17;0.93;;;;;;;;;;5115741;27;20523;-72
2022/05/29 12:59:18;;;;;;;4.97;1.23;;;;;;;;;;5098674;27;20282;-71
2022/05/29 13:01:50;;;;;;;2.95;0.80;;;;;;;;;;5113139;27;20672;-71
2022/05/29 13:04:19;;;;;;;5.60;1.30;;;;;;;;;;5115872;27;20188;-72
2022/05/29 13:06:45;;;;;;;2.50;0.77;;;;;;;;;;5108930;27;20242;-72
2022/05/29 13:09:14;;;;;;;2.22;0.80;;;;;;;;;;5111016;28;20213;-72
2022/05/29 13:11:47;;;;;;;2.65;1.10;;;;;;;;;;5110553;28;20204;-71
2022/05/29 13:14:16;;;;;;;2.78;0.95;;;;;;;;;;5109935;28;20189;-71
2022/05/29 13:16:43;;;;;;;6.75;1.23;;;;;;;;;;5110495;27;20180;-69
2022/05/29 13:19:17;;;;;;;3.05;1.05;;;;;;;;;;5122148;27;20560;-73
2022/05/29 13:21:52;;;;;;;4.47;0.98;;;;;;;;;;5113018;27;20280;-71
2022/05/29 13:24:19;;;;;;;4.93;1.20;;;;;;;;;;5109056;28;20177;-72
2022/05/29 13:26:45;;;;;;;7.25;1.23;;;;;;;;;;5108862;27;20220;-71
2022/05/29 13:29:31;;;;;;;5.65;1.27;;;;;;;;;;5110951;28;20205;-71
2022/05/29 13:32:15;;;;;;;8.85;1.35;;;;;;;;;;5111335;27;20476;-72
2022/05/29 13:34:42;;;;;;;4.15;1.35;;;;;;;;;;5113429;27;20929;-71
2022/05/29 13:37:09;;;;;;;4.70;1.40;;;;;;;;;;5110049;27;20833;-71
2022/05/29 13:39:54;;;;;;;6.10;1.58;;;;;;;;;;5122384;27;20212;-70
2022/05/29 13:42:23;;;;;;;8.98;2.10;;;;;;;;;;5111940;27;20225;-71
2022/05/29 13:44:49;;;;;;;6.10;1.40;;;;;;;;;;5107014;28;20653;-71
2022/05/29 13:47:22;;;;;;;8.68;1.38;;;;;;;;;;5112551;27;20519;-71
2022/05/29 13:50:06;;;;;;;13.60;2.45;;;;;;;;;;5109688;28;20204;-70
2022/05/29 13:52:36;;;;;;;5.30;1.30;;;;;;;;;;5108982;28;20271;-72
2022/05/29 13:55:04;;;;;;;7.72;1.70;;;;;;;;;;5111764;27;20216;-69
2022/05/29 14:06:24;;;;;;;5.80;1.35;;;;;;;;;;5107077;28;20232;-71
2022/05/29 14:08:58;;;;;;;7.72;1.05;;;;;;;;;;5107572;28;20217;-70
2022/05/29 14:11:44;;;;;;;6.60;1.60;;;;;;;;;;5108835;28;20188;-69
2022/05/29 14:14:29;;;;;;;6.38;1.40;;;;;;;;;;5108390;28;20188;-70
2022/05/29 14:16:57;;;;;;;5.20;1.42;;;;;;;;;;5115025;27;20257;-70
2022/05/29 14:19:29;;;;;;;8.23;1.50;;;;;;;;;;5109587;28;20208;-72
2022/05/29 14:22:11;;;;;;;5.07;1.33;;;;;;;;;;5109581;28;20187;-70
2022/05/29 14:24:52;;;;;;;4.50;1.00;;;;;;;;;;5106673;28;20189;-70
2022/05/29 14:27:28;;;;;;;10.40;1.40;;;;;;;;;;5107756;28;20188;-71
2022/05/29 14:30:18;;;;;;;5.10;1.10;;;;;;;;;;5107139;28;20215;-72
2022/05/29 14:33:03;;;;;;;4.50;1.23;;;;;;;;;;5121181;27;20197;-71
2022/05/29 14:35:29;;;;;;;6.85;1.27;;;;;;;;;;5108044;28;20185;-73
2022/05/29 14:38:10;;;;;;;5.20;1.02;;;;;;;;;;5108162;28;20246;-71
2022/05/29 14:40:36;;;;;;;5.05;1.73;;;;;;;;;;5108961;28;20280;-71
2022/05/29 14:43:23;;;;;;;4.03;1.20;;;;;;;;;;5108056;28;20308;-69
2022/05/29 14:46:02;;;;;;;4.82;1.00;;;;;;;;;;5107444;28;20189;-70
2022/05/29 14:48:36;;;;;;;3.50;1.00;;;;;;;;;;5100804;28;20217;-69
2022/05/29 14:51:08;;;;;;;4.15;1.08;;;;;;;;;;5109706;28;20192;-71
2022/05/29 14:53:37;;;;;;;2.25;1.00;;;;;;;;;;5119919;27;20195;-68
2022/05/29 14:56:11;;;;;;;6.53;1.30;;;;;;;;;;5106297;28;20273;-72
2022/05/29 14:58:38;;;;;;;5.10;1.50;;;;;;;;;;5101794;28;20188;-70
2022/05/29 15:01:06;;;;;;;5.35;1.20;;;;;;;;;;5107363;28;20706;-71
2022/05/29 15:03:37;;;;;;;8.93;1.80;;;;;;;;;;5116726;28;20256;-71
2022/05/29 15:06:03;;;;;;;10.85;2.85;;;;;;;;;;5108047;28;20185;-72
2022/05/29 15:11:19;;;;;;;4.40;1.15;;;;;;;;;;5108842;28;20644;-71
2022/05/29 15:13:57;;;;;;;3.42;0.70;;;;;;;;;;5105040;28;20630;-70
2022/05/29 15:16:48;;;;;;;4.30;1.10;;;;;;;;;;5106578;28;20199;-70
2022/05/29 15:25:18;;;;;;;3.88;0.90;;;;;;;;;;5107271;28;20293;-70
2022/05/29 15:27:45;;;;;;;5.80;1.20;;;;;;;;;;5105789;28;20580;-69
2022/05/29 15:30:17;;;;;;;3.00;1.00;;;;;;;;;;5105290;28;20654;-71
2022/05/29 15:32:44;;;;;;;4.25;1.40;;;;;;;;;;5107217;28;20193;-69
2022/05/29 15:35:10;;;;;;;4.05;1.17;;;;;;;;;;5104029;28;20324;-71
2022/05/29 15:37:42;;;;;;;7.15;1.30;;;;;;;;;;5104926;28;20194;-71
2022/05/29 15:40:32;;;;;;;4.38;1.13;;;;;;;;;;5105983;28;20197;-70
2022/05/29 15:43:21;;;;;;;8.93;1.33;;;;;;;;;;5108812;28;20220;-71
2022/05/29 15:45:53;;;;;;;5.00;1.27;;;;;;;;;;5108214;28;20177;-70
2022/05/29 15:48:38;;;;;;;4.47;1.67;;;;;;;;;;5115663;28;20211;-72
2022/05/29 15:51:13;;;;;;;4.95;1.40;;;;;;;;;;5108002;28;20664;-69
2022/05/29 15:53:49;;;;;;;5.50;1.20;;;;;;;;;;5098262;28;20593;-70